sensor_id;sensor_type;location;lat;lon;timestamp;P1;durP1;ratioP1;P2;durP2;ratioP2
17345;SDS011;8790;53.590;10.002;2024-01-15T00:00:31;9.20;;;1.60;;
17345;SDS011;8790;53.590;10.002;2024-01-15T00:03:04;6.93;;;1.10;;
17345;SDS011;8790;53.590;10.002;2024-01-15T00:05:36;6.10;;;1.20;;
17345;SDS011;8790;53.590;10.002;2024-01-15T00:08:07;7.03;;;1.40;;
17345;SDS011;8790;53.590;10.002;2024-01-15T00:10:39;2.60;;;1.00;;
17345;SDS011;8790;53.590;10.002;2024-01-15T00:13:11;4.40;;;1.10;;
17345;SDS011;8790;53.590;10.002;2024-01-15T00:15:43;3.80;;;1.03;;
17345;SDS011;8790;53.590;10.002;2024-01-15T00:18:16;8.43;;;3.90;;
17345;SDS011;8790;53.590;10.002;2024-01-15T00:20:47;2.57;;;1.00;;
17345;SDS011;8790;53.590;10.002;2024-01-15T00:23:19;3.47;;;1.30;;
17345;SDS011;8790;53.590;10.002;2024-01-15T00:25:50;4.07;;;1.20;;
17345;SDS011;8790;53.590;10.002;2024-01-15T00:28:22;3.20;;;1.17;;
17345;SDS011;8790;53.590;10.002;2024-01-15T00:30:53;2.73;;;0.97;;
17345;SDS011;8790;53.590;10.002;2024-01-15T00:33:26;5.63;;;1.30;;
17345;SDS011;8790;53.590;10.002;2024-01-15T00:35:58;4.60;;;1.00;;
17345;SDS011;8790;53.590;10.002;2024-01-15T00:38:29;4.80;;;1.27;;
17345;SDS011;8790;53.590;10.002;2024-01-15T00:41:01;9.13;;;1.67;;
17345;SDS011;8790;53.590;10.002;2024-01-15T00:43:33;3.57;;;1.00;;
17345;SDS011;8790;53.590;10.002;2024-01-15T00:46:04;5.97;;;1.17;;
17345;SDS011;8790;53.590;10.002;2024-01-15T00:48:37;6.03;;;1.33;;
17345;SDS011;8790;53.590;10.002;2024-01-15T00:51:09;6.50;;;1.37;;
17345;SDS011;8790;53.590;10.002;2024-01-15T00:53:40;7.33;;;1.53;;
17345;SDS011;8790;53.590;10.002;2024-01-15T00:56:12;5.67;;;1.40;;
17345;SDS011;8790;53.590;10.002;2024-01-15T00:58:43;10.37;;;1.50;;
17345;SDS011;8790;53.590;10.002;2024-01-15T01:01:15;7.23;;;1.60;;
17345;SDS011;8790;53.590;10.002;2024-01-15T01:03:47;4.47;;;1.00;;
17345;SDS011;8790;53.590;10.002;2024-01-15T01:06:19;4.43;;;1.40;;
17345;SDS011;8790;53.590;10.002;2024-01-15T01:08:50;4.47;;;1.17;;
17345;SDS011;8790;53.590;10.002;2024-01-15T01:11:21;3.03;;;1.30;;
17345;SDS011;8790;53.590;10.002;2024-01-15T01:13:53;4.20;;;1.13;;
17345;SDS011;8790;53.590;10.002;2024-01-15T01:16:26;4.10;;;1.20;;
17345;SDS011;8790;53.590;10.002;2024-01-15T01:18:59;6.27;;;1.37;;
17345;SDS011;8790;53.590;10.002;2024-01-15T01:21:30;5.57;;;1.30;;
17345;SDS011;8790;53.590;10.002;2024-01-15T01:24:02;4.77;;;1.10;;
17345;SDS011;8790;53.590;10.002;2024-01-15T01:26:34;4.10;;;1.03;;
17345;SDS011;8790;53.590;10.002;2024-01-15T01:29:05;6.37;;;0.90;;
17345;SDS011;8790;53.590;10.002;2024-01-15T01:31:41;8.30;;;1.30;;
17345;SDS011;8790;53.590;10.002;2024-01-15T01:34:15;7.70;;;1.20;;
17345;SDS011;8790;53.590;10.002;2024-01-15T01:36:47;5.97;;;1.23;;
17345;SDS011;8790;53.590;10.002;2024-01-15T01:39:19;6.43;;;1.27;;
17345;SDS011;8790;53.590;10.002;2024-01-15T01:41:50;6.33;;;1.40;;
17345;SDS011;8790;53.590;10.002;2024-01-15T01:44:21;5.33;;;1.30;;
17345;SDS011;8790;53.590;10.002;2024-01-15T01:46:53;5.57;;;0.90;;
17345;SDS011;8790;53.590;10.002;2024-01-15T01:49:26;7.17;;;1.30;;
17345;SDS011;8790;53.590;10.002;2024-01-15T01:51:59;10.03;;;1.30;;
17345;SDS011;8790;53.590;10.002;2024-01-15T01:54:31;8.90;;;1.40;;
17345;SDS011;8790;53.590;10.002;2024-01-15T01:57:03;6.83;;;1.03;;
17345;SDS011;8790;53.590;10.002;2024-01-15T01:59:35;5.07;;;1.20;;
17345;SDS011;8790;53.590;10.002;2024-01-15T02:02:08;11.20;;;1.67;;
17345;SDS011;8790;53.590;10.002;2024-01-15T02:04:41;4.07;;;1.10;;
17345;SDS011;8790;53.590;10.002;2024-01-15T02:07:13;8.30;;;1.20;;
17345;SDS011;8790;53.590;10.002;2024-01-15T02:09:47;5.40;;;1.30;;
17345;SDS011;8790;53.590;10.002;2024-01-15T02:12:19;3.87;;;1.23;;
17345;SDS011;8790;53.590;10.002;2024-01-15T02:14:50;6.03;;;1.20;;
17345;SDS011;8790;53.590;10.002;2024-01-15T02:17:22;6.20;;;1.43;;
17345;SDS011;8790;53.590;10.002;2024-01-15T02:19:55;5.60;;;1.30;;
17345;SDS011;8790;53.590;10.002;2024-01-15T02:22:26;7.90;;;1.00;;
17345;SDS011;8790;53.590;10.002;2024-01-15T02:24:59;4.43;;;1.30;;
17345;SDS011;8790;53.590;10.002;2024-01-15T02:27:30;7.20;;;1.47;;
17345;SDS011;8790;53.590;10.002;2024-01-15T02:30:02;5.27;;;1.30;;
17345;SDS011;8790;53.590;10.002;2024-01-15T02:32:34;4.00;;;1.00;;
17345;SDS011;8790;53.590;10.002;2024-01-15T02:35:06;3.73;;;1.20;;
17345;SDS011;8790;53.590;10.002;2024-01-15T02:37:38;4.27;;;1.27;;
17345;SDS011;8790;53.590;10.002;2024-01-15T02:40:11;3.53;;;1.33;;
17345;SDS011;8790;53.590;10.002;2024-01-15T02:42:42;3.87;;;1.37;;
17345;SDS011;8790;53.590;10.002;2024-01-15T02:45:14;5.17;;;1.33;;
17345;SDS011;8790;53.590;10.002;2024-01-15T02:47:46;8.50;;;1.40;;
17345;SDS011;8790;53.590;10.002;2024-01-15T02:50:18;7.70;;;1.20;;
17345;SDS011;8790;53.590;10.002;2024-01-15T02:52:49;5.17;;;1.37;;
17345;SDS011;8790;53.590;10.002;2024-01-15T02:55:22;3.80;;;1.50;;
17345;SDS011;8790;53.590;10.002;2024-01-15T02:57:54;2.17;;;1.10;;
17345;SDS011;8790;53.590;10.002;2024-01-15T03:00:25;4.37;;;1.40;;
17345;SDS011;8790;53.590;10.002;2024-01-15T03:03:22;2.53;;;1.10;;
17345;SDS011;8790;53.590;10.002;2024-01-15T03:05:53;7.63;;;1.50;;
17345;SDS011;8790;53.590;10.002;2024-01-15T03:08:25;3.20;;;1.23;;
17345;SDS011;8790;53.590;10.002;2024-01-15T03:10:57;4.47;;;1.43;;
17345;SDS011;8790;53.590;10.002;2024-01-15T03:13:29;5.23;;;1.17;;
17345;SDS011;8790;53.590;10.002;2024-01-15T03:16:01;5.97;;;1.00;;
17345;SDS011;8790;53.590;10.002;2024-01-15T03:18:33;4.63;;;1.10;;
17345;SDS011;8790;53.590;10.002;2024-01-15T03:21:04;6.40;;;1.03;;
17345;SDS011;8790;53.590;10.002;2024-01-15T03:23:36;4.77;;;1.50;;
17345;SDS011;8790;53.590;10.002;2024-01-15T03:26:09;7.30;;;1.20;;
17345;SDS011;8790;53.590;10.002;2024-01-15T03:28:40;6.63;;;1.50;;
17345;SDS011;8790;53.590;10.002;2024-01-15T03:31:12;6.83;;;1.53;;
17345;SDS011;8790;53.590;10.002;2024-01-15T03:33:43;7.27;;;1.40;;
17345;SDS011;8790;53.590;10.002;2024-01-15T03:36:15;9.70;;;1.50;;
17345;SDS011;8790;53.590;10.002;2024-01-15T03:38:46;9.37;;;1.10;;
17345;SDS011;8790;53.590;10.002;2024-01-15T03:41:19;8.23;;;1.73;;
17345;SDS011;8790;53.590;10.002;2024-01-15T03:43:51;5.03;;;1.70;;
17345;SDS011;8790;53.590;10.002;2024-01-15T03:46:22;7.37;;;1.40;;
17345;SDS011;8790;53.590;10.002;2024-01-15T03:48:54;10.63;;;1.80;;
17345;SDS011;8790;53.590;10.002;2024-01-15T03:51:25;8.83;;;1.90;;
17345;SDS011;8790;53.590;10.002;2024-01-15T03:53:57;6.23;;;1.80;;
17345;SDS011;8790;53.590;10.002;2024-01-15T03:56:30;3.83;;;1.13;;
17345;SDS011;8790;53.590;10.002;2024-01-15T03:59:01;9.20;;;1.93;;
17345;SDS011;8790;53.590;10.002;2024-01-15T04:01:33;9.33;;;1.60;;
17345;SDS011;8790;53.590;10.002;2024-01-15T04:04:04;7.73;;;1.40;;
17345;SDS011;8790;53.590;10.002;2024-01-15T04:06:35;8.87;;;1.47;;
17345;SDS011;8790;53.590;10.002;2024-01-15T04:09:07;7.03;;;1.53;;
17345;SDS011;8790;53.590;10.002;2024-01-15T04:11:40;6.87;;;1.97;;
17345;SDS011;8790;53.590;10.002;2024-01-15T04:14:11;7.50;;;1.30;;
17345;SDS011;8790;53.590;10.002;2024-01-15T04:16:43;9.20;;;1.70;;
17345;SDS011;8790;53.590;10.002;2024-01-15T04:19:14;7.00;;;1.80;;
17345;SDS011;8790;53.590;10.002;2024-01-15T04:21:45;7.87;;;1.70;;
17345;SDS011;8790;53.590;10.002;2024-01-15T04:24:17;6.37;;;1.40;;
17345;SDS011;8790;53.590;10.002;2024-01-15T04:26:50;7.87;;;1.40;;
17345;SDS011;8790;53.590;10.002;2024-01-15T04:29:22;7.80;;;1.80;;
17345;SDS011;8790;53.590;10.002;2024-01-15T04:31:53;6.80;;;1.20;;
17345;SDS011;8790;53.590;10.002;2024-01-15T04:34:25;9.70;;;1.67;;
17345;SDS011;8790;53.590;10.002;2024-01-15T04:36:57;5.47;;;1.50;;
17345;SDS011;8790;53.590;10.002;2024-01-15T04:39:28;9.73;;;1.87;;
17345;SDS011;8790;53.590;10.002;2024-01-15T04:42:01;4.67;;;1.50;;
17345;SDS011;8790;53.590;10.002;2024-01-15T04:44:33;5.53;;;1.40;;
17345;SDS011;8790;53.590;10.002;2024-01-15T04:47:04;10.40;;;1.53;;
17345;SDS011;8790;53.590;10.002;2024-01-15T04:49:36;8.87;;;1.50;;
17345;SDS011;8790;53.590;10.002;2024-01-15T04:52:08;7.73;;;1.73;;
17345;SDS011;8790;53.590;10.002;2024-01-15T04:54:40;12.90;;;1.93;;
17345;SDS011;8790;53.590;10.002;2024-01-15T04:57:13;8.53;;;1.73;;
17345;SDS011;8790;53.590;10.002;2024-01-15T04:59:45;8.53;;;1.60;;
17345;SDS011;8790;53.590;10.002;2024-01-15T05:02:16;6.80;;;1.57;;
17345;SDS011;8790;53.590;10.002;2024-01-15T05:04:48;9.60;;;2.27;;
17345;SDS011;8790;53.590;10.002;2024-01-15T05:07:19;7.90;;;1.50;;
17345;SDS011;8790;53.590;10.002;2024-01-15T05:09:50;13.30;;;2.30;;
17345;SDS011;8790;53.590;10.002;2024-01-15T05:12:23;9.30;;;2.07;;
17345;SDS011;8790;53.590;10.002;2024-01-15T05:14:55;8.43;;;2.03;;
17345;SDS011;8790;53.590;10.002;2024-01-15T05:17:26;10.90;;;2.13;;
17345;SDS011;8790;53.590;10.002;2024-01-15T05:19:58;11.43;;;1.87;;
17345;SDS011;8790;53.590;10.002;2024-01-15T05:22:29;6.80;;;2.20;;
17345;SDS011;8790;53.590;10.002;2024-01-15T05:25:01;8.43;;;2.43;;
17345;SDS011;8790;53.590;10.002;2024-01-15T05:27:34;8.60;;;2.23;;
17345;SDS011;8790;53.590;10.002;2024-01-15T05:30:05;11.33;;;1.60;;
17345;SDS011;8790;53.590;10.002;2024-01-15T05:32:37;6.90;;;1.57;;
17345;SDS011;8790;53.590;10.002;2024-01-15T05:35:09;13.50;;;2.03;;
17345;SDS011;8790;53.590;10.002;2024-01-15T05:37:44;7.33;;;3.17;;
17345;SDS011;8790;53.590;10.002;2024-01-15T05:40:16;9.50;;;1.77;;
17345;SDS011;8790;53.590;10.002;2024-01-15T05:42:48;11.97;;;1.93;;
17345;SDS011;8790;53.590;10.002;2024-01-15T05:45:20;7.43;;;1.60;;
17345;SDS011;8790;53.590;10.002;2024-01-15T05:47:51;9.33;;;1.90;;
17345;SDS011;8790;53.590;10.002;2024-01-15T05:50:23;8.50;;;2.00;;
17345;SDS011;8790;53.590;10.002;2024-01-15T05:52:54;6.87;;;1.70;;
17345;SDS011;8790;53.590;10.002;2024-01-15T05:55:26;9.33;;;1.70;;
17345;SDS011;8790;53.590;10.002;2024-01-15T05:57:59;12.20;;;1.90;;
17345;SDS011;8790;53.590;10.002;2024-01-15T06:00:30;7.80;;;1.67;;
17345;SDS011;8790;53.590;10.002;2024-01-15T06:03:03;10.33;;;1.53;;
17345;SDS011;8790;53.590;10.002;2024-01-15T06:05:34;4.47;;;1.27;;
17345;SDS011;8790;53.590;10.002;2024-01-15T06:08:06;14.03;;;1.90;;
17345;SDS011;8790;53.590;10.002;2024-01-15T06:10:37;7.40;;;1.90;;
17345;SDS011;8790;53.590;10.002;2024-01-15T06:13:10;9.97;;;1.80;;
17345;SDS011;8790;53.590;10.002;2024-01-15T06:15:41;8.80;;;1.80;;
17345;SDS011;8790;53.590;10.002;2024-01-15T06:18:13;9.20;;;2.10;;
17345;SDS011;8790;53.590;10.002;2024-01-15T06:20:44;9.30;;;2.10;;
17345;SDS011;8790;53.590;10.002;2024-01-15T06:23:16;11.37;;;1.93;;
17345;SDS011;8790;53.590;10.002;2024-01-15T06:25:47;7.70;;;2.10;;
17345;SDS011;8790;53.590;10.002;2024-01-15T06:28:20;11.40;;;1.97;;
17345;SDS011;8790;53.590;10.002;2024-01-15T06:30:52;12.83;;;2.17;;
17345;SDS011;8790;53.590;10.002;2024-01-15T06:33:23;9.20;;;1.60;;
17345;SDS011;8790;53.590;10.002;2024-01-15T06:35:54;7.30;;;1.97;;
17345;SDS011;8790;53.590;10.002;2024-01-15T06:38:26;8.10;;;1.70;;
17345;SDS011;8790;53.590;10.002;2024-01-15T06:40:58;10.37;;;2.07;;
17345;SDS011;8790;53.590;10.002;2024-01-15T06:43:31;8.90;;;2.10;;
17345;SDS011;8790;53.590;10.002;2024-01-15T06:46:02;8.97;;;1.83;;
17345;SDS011;8790;53.590;10.002;2024-01-15T06:48:34;6.53;;;1.60;;
17345;SDS011;8790;53.590;10.002;2024-01-15T06:51:05;5.83;;;2.20;;
17345;SDS011;8790;53.590;10.002;2024-01-15T06:53:37;6.47;;;1.80;;
17345;SDS011;8790;53.590;10.002;2024-01-15T06:56:09;6.57;;;1.57;;
17345;SDS011;8790;53.590;10.002;2024-01-15T06:58:41;9.17;;;1.80;;
17345;SDS011;8790;53.590;10.002;2024-01-15T07:01:13;10.03;;;2.10;;
17345;SDS011;8790;53.590;10.002;2024-01-15T07:03:44;6.87;;;1.40;;
17345;SDS011;8790;53.590;10.002;2024-01-15T07:06:16;8.80;;;1.50;;
17345;SDS011;8790;53.590;10.002;2024-01-15T07:08:48;10.30;;;1.53;;
17345;SDS011;8790;53.590;10.002;2024-01-15T07:11:20;9.90;;;2.90;;
17345;SDS011;8790;53.590;10.002;2024-01-15T07:13:52;9.57;;;1.67;;
17345;SDS011;8790;53.590;10.002;2024-01-15T07:16:24;5.83;;;1.30;;
17345;SDS011;8790;53.590;10.002;2024-01-15T07:18:56;3.53;;;1.13;;
17345;SDS011;8790;53.590;10.002;2024-01-15T07:21:27;5.10;;;1.40;;
17345;SDS011;8790;53.590;10.002;2024-01-15T07:24:00;3.37;;;1.30;;
17345;SDS011;8790;53.590;10.002;2024-01-15T07:26:31;9.47;;;1.43;;
17345;SDS011;8790;53.590;10.002;2024-01-15T07:29:04;6.47;;;1.40;;
17345;SDS011;8790;53.590;10.002;2024-01-15T07:31:35;5.67;;;1.03;;
17345;SDS011;8790;53.590;10.002;2024-01-15T07:34:07;4.37;;;1.47;;
17345;SDS011;8790;53.590;10.002;2024-01-15T07:36:38;7.77;;;1.70;;
17345;SDS011;8790;53.590;10.002;2024-01-15T07:39:10;3.70;;;1.03;;
17345;SDS011;8790;53.590;10.002;2024-01-15T07:41:41;4.23;;;0.97;;
17345;SDS011;8790;53.590;10.002;2024-01-15T07:44:14;5.87;;;1.07;;
17345;SDS011;8790;53.590;10.002;2024-01-15T07:46:46;6.17;;;1.50;;
17345;SDS011;8790;53.590;10.002;2024-01-15T07:49:17;6.63;;;1.20;;
17345;SDS011;8790;53.590;10.002;2024-01-15T07:51:49;5.90;;;1.10;;
17345;SDS011;8790;53.590;10.002;2024-01-15T07:54:20;3.73;;;1.07;;
17345;SDS011;8790;53.590;10.002;2024-01-15T07:56:53;4.60;;;1.10;;
17345;SDS011;8790;53.590;10.002;2024-01-15T07:59:26;7.90;;;1.20;;
17345;SDS011;8790;53.590;10.002;2024-01-15T08:01:58;7.23;;;1.20;;
17345;SDS011;8790;53.590;10.002;2024-01-15T08:04:30;5.33;;;1.13;;
17345;SDS011;8790;53.590;10.002;2024-01-15T08:07:02;6.43;;;1.40;;
17345;SDS011;8790;53.590;10.002;2024-01-15T08:09:34;3.90;;;1.13;;
17345;SDS011;8790;53.590;10.002;2024-01-15T08:12:06;11.97;;;1.83;;
17345;SDS011;8790;53.590;10.002;2024-01-15T08:14:39;4.77;;;1.17;;
17345;SDS011;8790;53.590;10.002;2024-01-15T08:17:10;15.00;;;1.63;;
17345;SDS011;8790;53.590;10.002;2024-01-15T08:19:43;5.13;;;1.07;;
17345;SDS011;8790;53.590;10.002;2024-01-15T08:22:16;7.20;;;1.20;;
17345;SDS011;8790;53.590;10.002;2024-01-15T08:24:48;8.63;;;1.40;;
17345;SDS011;8790;53.590;10.002;2024-01-15T08:27:19;3.93;;;1.10;;
17345;SDS011;8790;53.590;10.002;2024-01-15T08:29:52;9.73;;;1.20;;
17345;SDS011;8790;53.590;10.002;2024-01-15T08:32:23;5.17;;;1.10;;
17345;SDS011;8790;53.590;10.002;2024-01-15T08:34:55;9.20;;;1.60;;
17345;SDS011;8790;53.590;10.002;2024-01-15T08:37:26;6.20;;;1.40;;
17345;SDS011;8790;53.590;10.002;2024-01-15T08:39:58;4.90;;;1.13;;
17345;SDS011;8790;53.590;10.002;2024-01-15T08:42:29;5.20;;;1.53;;
17345;SDS011;8790;53.590;10.002;2024-01-15T08:45:02;9.93;;;1.43;;
17345;SDS011;8790;53.590;10.002;2024-01-15T08:47:34;4.37;;;1.53;;
17345;SDS011;8790;53.590;10.002;2024-01-15T08:50:06;4.23;;;1.10;;
17345;SDS011;8790;53.590;10.002;2024-01-15T08:52:40;3.00;;;1.00;;
17345;SDS011;8790;53.590;10.002;2024-01-15T08:55:11;5.17;;;1.50;;
17345;SDS011;8790;53.590;10.002;2024-01-15T08:57:43;5.43;;;1.00;;
17345;SDS011;8790;53.590;10.002;2024-01-15T09:00:17;3.57;;;0.93;;
17345;SDS011;8790;53.590;10.002;2024-01-15T09:02:49;3.00;;;0.97;;
17345;SDS011;8790;53.590;10.002;2024-01-15T09:05:20;4.20;;;1.03;;
17345;SDS011;8790;53.590;10.002;2024-01-15T09:07:52;6.47;;;1.03;;
17345;SDS011;8790;53.590;10.002;2024-01-15T09:10:23;3.97;;;1.10;;
17345;SDS011;8790;53.590;10.002;2024-01-15T09:12:55;4.20;;;1.10;;
17345;SDS011;8790;53.590;10.002;2024-01-15T09:15:27;3.83;;;1.20;;
17345;SDS011;8790;53.590;10.002;2024-01-15T09:17:59;2.43;;;1.10;;
17345;SDS011;8790;53.590;10.002;2024-01-15T09:20:32;6.73;;;1.50;;
17345;SDS011;8790;53.590;10.002;2024-01-15T09:23:03;5.80;;;1.03;;
17345;SDS011;8790;53.590;10.002;2024-01-15T09:25:35;6.43;;;1.10;;
17345;SDS011;8790;53.590;10.002;2024-01-15T09:28:06;4.57;;;1.20;;
17345;SDS011;8790;53.590;10.002;2024-01-15T09:30:39;4.77;;;1.07;;
17345;SDS011;8790;53.590;10.002;2024-01-15T09:33:11;6.37;;;1.30;;
17345;SDS011;8790;53.590;10.002;2024-01-15T09:35:42;4.23;;;1.33;;
17345;SDS011;8790;53.590;10.002;2024-01-15T09:38:14;5.50;;;1.20;;
17345;SDS011;8790;53.590;10.002;2024-01-15T09:40:45;4.87;;;1.43;;
17345;SDS011;8790;53.590;10.002;2024-01-15T09:43:17;3.57;;;0.90;;
17345;SDS011;8790;53.590;10.002;2024-01-15T09:45:51;3.77;;;1.17;;
17345;SDS011;8790;53.590;10.002;2024-01-15T09:48:23;4.90;;;1.20;;
17345;SDS011;8790;53.590;10.002;2024-01-15T09:50:54;4.57;;;0.93;;
17345;SDS011;8790;53.590;10.002;2024-01-15T09:53:27;3.83;;;1.10;;
17345;SDS011;8790;53.590;10.002;2024-01-15T09:55:58;5.03;;;1.20;;
17345;SDS011;8790;53.590;10.002;2024-01-15T09:58:30;6.43;;;1.50;;
17345;SDS011;8790;53.590;10.002;2024-01-15T10:01:03;5.20;;;1.07;;
17345;SDS011;8790;53.590;10.002;2024-01-15T10:03:35;4.10;;;1.30;;
17345;SDS011;8790;53.590;10.002;2024-01-15T10:06:08;4.80;;;1.00;;
17345;SDS011;8790;53.590;10.002;2024-01-15T10:08:40;3.57;;;0.87;;
17345;SDS011;8790;53.590;10.002;2024-01-15T10:11:11;9.47;;;1.07;;
17345;SDS011;8790;53.590;10.002;2024-01-15T10:13:43;7.07;;;1.33;;
17345;SDS011;8790;53.590;10.002;2024-01-15T10:16:16;2.50;;;1.20;;
17345;SDS011;8790;53.590;10.002;2024-01-15T10:18:47;5.40;;;0.90;;
17345;SDS011;8790;53.590;10.002;2024-01-15T10:21:19;6.30;;;1.10;;
17345;SDS011;8790;53.590;10.002;2024-01-15T10:23:50;4.00;;;1.20;;
17345;SDS011;8790;53.590;10.002;2024-01-15T10:26:24;3.80;;;1.00;;
17345;SDS011;8790;53.590;10.002;2024-01-15T10:28:55;4.27;;;0.83;;
17345;SDS011;8790;53.590;10.002;2024-01-15T10:31:28;1.53;;;0.80;;
17345;SDS011;8790;53.590;10.002;2024-01-15T10:34:09;3.30;;;0.97;;
17345;SDS011;8790;53.590;10.002;2024-01-15T10:36:42;2.97;;;0.80;;
17345;SDS011;8790;53.590;10.002;2024-01-15T10:39:17;1.43;;;0.70;;
17345;SDS011;8790;53.590;10.002;2024-01-15T10:41:49;2.77;;;0.80;;
17345;SDS011;8790;53.590;10.002;2024-01-15T10:44:20;1.77;;;0.77;;
17345;SDS011;8790;53.590;10.002;2024-01-15T10:46:53;2.17;;;1.10;;
17345;SDS011;8790;53.590;10.002;2024-01-15T10:49:26;3.93;;;0.80;;
17345;SDS011;8790;53.590;10.002;2024-01-15T10:51:59;2.17;;;1.00;;
17345;SDS011;8790;53.590;10.002;2024-01-15T10:54:32;4.20;;;1.00;;
17345;SDS011;8790;53.590;10.002;2024-01-15T10:57:04;2.23;;;0.97;;
17345;SDS011;8790;53.590;10.002;2024-01-15T10:59:36;1.87;;;1.00;;
17345;SDS011;8790;53.590;10.002;2024-01-15T11:02:09;2.13;;;0.90;;
17345;SDS011;8790;53.590;10.002;2024-01-15T11:04:40;2.73;;;0.93;;
17345;SDS011;8790;53.590;10.002;2024-01-15T11:07:17;1.37;;;0.80;;
17345;SDS011;8790;53.590;10.002;2024-01-15T11:09:52;1.67;;;1.03;;
17345;SDS011;8790;53.590;10.002;2024-01-15T11:12:24;1.83;;;1.00;;
17345;SDS011;8790;53.590;10.002;2024-01-15T11:15:00;2.97;;;0.90;;
17345;SDS011;8790;53.590;10.002;2024-01-15T11:20:33;1.60;;;0.70;;
17345;SDS011;8790;53.590;10.002;2024-01-15T11:23:04;2.40;;;1.03;;
17345;SDS011;8790;53.590;10.002;2024-01-15T11:25:36;2.70;;;1.17;;
17345;SDS011;8790;53.590;10.002;2024-01-15T11:28:09;3.70;;;1.20;;
17345;SDS011;8790;53.590;10.002;2024-01-15T11:30:41;1.80;;;1.03;;
17345;SDS011;8790;53.590;10.002;2024-01-15T11:36:06;2.60;;;0.90;;
17345;SDS011;8790;53.590;10.002;2024-01-15T11:38:38;1.60;;;0.80;;
17345;SDS011;8790;53.590;10.002;2024-01-15T11:41:13;2.10;;;1.00;;
17345;SDS011;8790;53.590;10.002;2024-01-15T11:43:45;3.47;;;0.73;;
17345;SDS011;8790;53.590;10.002;2024-01-15T11:46:17;1.10;;;0.93;;
17345;SDS011;8790;53.590;10.002;2024-01-15T11:48:50;3.33;;;0.97;;
17345;SDS011;8790;53.590;10.002;2024-01-15T11:51:28;2.30;;;1.10;;
17345;SDS011;8790;53.590;10.002;2024-01-15T11:54:00;2.50;;;1.03;;
17345;SDS011;8790;53.590;10.002;2024-01-15T11:56:35;1.40;;;1.03;;
17345;SDS011;8790;53.590;10.002;2024-01-15T11:59:06;2.53;;;1.10;;
17345;SDS011;8790;53.590;10.002;2024-01-15T12:01:38;4.10;;;1.43;;
17345;SDS011;8790;53.590;10.002;2024-01-15T12:04:10;1.93;;;1.20;;
17345;SDS011;8790;53.590;10.002;2024-01-15T12:06:43;2.03;;;1.10;;
17345;SDS011;8790;53.590;10.002;2024-01-15T12:09:14;3.33;;;1.20;;
17345;SDS011;8790;53.590;10.002;2024-01-15T12:11:47;1.53;;;1.27;;
17345;SDS011;8790;53.590;10.002;2024-01-15T12:14:22;1.80;;;1.10;;
17345;SDS011;8790;53.590;10.002;2024-01-15T12:16:53;3.00;;;1.10;;
17345;SDS011;8790;53.590;10.002;2024-01-15T12:19:26;2.80;;;1.33;;
17345;SDS011;8790;53.590;10.002;2024-01-15T12:21:58;3.13;;;1.20;;
17345;SDS011;8790;53.590;10.002;2024-01-15T12:24:30;3.33;;;1.40;;
17345;SDS011;8790;53.590;10.002;2024-01-15T12:27:01;3.57;;;1.23;;
17345;SDS011;8790;53.590;10.002;2024-01-15T12:29:33;3.67;;;1.20;;
17345;SDS011;8790;53.590;10.002;2024-01-15T12:32:04;1.97;;;1.10;;
17345;SDS011;8790;53.590;10.002;2024-01-15T12:34:38;3.07;;;1.00;;
17345;SDS011;8790;53.590;10.002;2024-01-15T12:37:10;2.47;;;1.30;;
17345;SDS011;8790;53.590;10.002;2024-01-15T12:39:43;3.23;;;1.20;;
17345;SDS011;8790;53.590;10.002;2024-01-15T12:42:14;2.33;;;1.23;;
17345;SDS011;8790;53.590;10.002;2024-01-15T12:44:46;1.67;;;1.27;;
17345;SDS011;8790;53.590;10.002;2024-01-15T12:47:18;3.07;;;1.50;;
17345;SDS011;8790;53.590;10.002;2024-01-15T12:49:52;2.97;;;1.27;;
17345;SDS011;8790;53.590;10.002;2024-01-15T12:52:26;1.70;;;1.30;;
17345;SDS011;8790;53.590;10.002;2024-01-15T12:54:57;2.70;;;1.20;;
17345;SDS011;8790;53.590;10.002;2024-01-15T12:57:29;1.30;;;1.20;;
17345;SDS011;8790;53.590;10.002;2024-01-15T13:00:00;3.33;;;1.37;;
17345;SDS011;8790;53.590;10.002;2024-01-15T13:02:36;2.53;;;1.20;;
17345;SDS011;8790;53.590;10.002;2024-01-15T13:05:09;1.80;;;1.00;;
17345;SDS011;8790;53.590;10.002;2024-01-15T13:07:42;1.83;;;1.07;;
17345;SDS011;8790;53.590;10.002;2024-01-15T13:10:12;1.40;;;1.00;;
17345;SDS011;8790;53.590;10.002;2024-01-15T13:12:44;2.23;;;1.37;;
17345;SDS011;8790;53.590;10.002;2024-01-15T13:15:15;2.27;;;1.27;;
17345;SDS011;8790;53.590;10.002;2024-01-15T13:17:47;2.00;;;1.50;;
17345;SDS011;8790;53.590;10.002;2024-01-15T13:20:20;3.23;;;1.00;;
17345;SDS011;8790;53.590;10.002;2024-01-15T13:22:52;1.30;;;1.07;;
17345;SDS011;8790;53.590;10.002;2024-01-15T13:25:23;2.00;;;1.57;;
17345;SDS011;8790;53.590;10.002;2024-01-15T13:27:55;2.53;;;1.27;;
17345;SDS011;8790;53.590;10.002;2024-01-15T13:30:26;2.77;;;1.40;;
17345;SDS011;8790;53.590;10.002;2024-01-15T13:32:58;1.37;;;1.10;;
17345;SDS011;8790;53.590;10.002;2024-01-15T13:35:35;4.13;;;1.30;;
17345;SDS011;8790;53.590;10.002;2024-01-15T13:38:07;1.30;;;1.03;;
17345;SDS011;8790;53.590;10.002;2024-01-15T13:40:39;3.07;;;1.10;;
17345;SDS011;8790;53.590;10.002;2024-01-15T13:43:10;3.80;;;1.30;;
17345;SDS011;8790;53.590;10.002;2024-01-15T13:45:44;3.10;;;1.30;;
17345;SDS011;8790;53.590;10.002;2024-01-15T13:48:16;3.70;;;1.40;;
17345;SDS011;8790;53.590;10.002;2024-01-15T13:50:49;2.50;;;1.10;;
17345;SDS011;8790;53.590;10.002;2024-01-15T13:53:21;3.33;;;1.50;;
17345;SDS011;8790;53.590;10.002;2024-01-15T13:55:52;2.40;;;1.40;;
17345;SDS011;8790;53.590;10.002;2024-01-15T13:58:24;2.97;;;1.20;;
17345;SDS011;8790;53.590;10.002;2024-01-15T14:00:55;4.00;;;1.47;;
17345;SDS011;8790;53.590;10.002;2024-01-15T14:03:27;2.40;;;1.40;;
17345;SDS011;8790;53.590;10.002;2024-01-15T14:06:00;4.53;;;1.83;;
17345;SDS011;8790;53.590;10.002;2024-01-15T14:08:33;3.97;;;1.70;;
17345;SDS011;8790;53.590;10.002;2024-01-15T14:11:04;3.53;;;1.97;;
17345;SDS011;8790;53.590;10.002;2024-01-15T14:13:37;2.23;;;1.57;;
17345;SDS011;8790;53.590;10.002;2024-01-15T14:16:08;2.90;;;1.43;;
17345;SDS011;8790;53.590;10.002;2024-01-15T14:18:41;2.23;;;1.30;;
17345;SDS011;8790;53.590;10.002;2024-01-15T14:21:14;3.23;;;1.20;;
17345;SDS011;8790;53.590;10.002;2024-01-15T14:23:45;3.37;;;1.40;;
17345;SDS011;8790;53.590;10.002;2024-01-15T14:26:17;5.47;;;1.80;;
17345;SDS011;8790;53.590;10.002;2024-01-15T14:28:48;3.40;;;1.57;;
17345;SDS011;8790;53.590;10.002;2024-01-15T14:31:20;2.17;;;1.30;;
17345;SDS011;8790;53.590;10.002;2024-01-15T14:33:52;3.10;;;1.30;;
17345;SDS011;8790;53.590;10.002;2024-01-15T14:36:26;4.13;;;1.90;;
17345;SDS011;8790;53.590;10.002;2024-01-15T14:38:57;2.17;;;1.57;;
17345;SDS011;8790;53.590;10.002;2024-01-15T14:41:29;6.03;;;1.80;;
17345;SDS011;8790;53.590;10.002;2024-01-15T14:44:01;2.63;;;1.40;;
17345;SDS011;8790;53.590;10.002;2024-01-15T14:46:33;2.50;;;1.20;;
17345;SDS011;8790;53.590;10.002;2024-01-15T14:49:05;1.80;;;1.33;;
17345;SDS011;8790;53.590;10.002;2024-01-15T14:51:38;1.93;;;1.30;;
17345;SDS011;8790;53.590;10.002;2024-01-15T14:54:09;2.40;;;1.77;;
17345;SDS011;8790;53.590;10.002;2024-01-15T14:56:41;3.40;;;2.20;;
17345;SDS011;8790;53.590;10.002;2024-01-15T14:59:12;4.63;;;2.70;;
17345;SDS011;8790;53.590;10.002;2024-01-15T15:01:44;1.73;;;1.33;;
17345;SDS011;8790;53.590;10.002;2024-01-15T15:04:16;1.90;;;1.40;;
17345;SDS011;8790;53.590;10.002;2024-01-15T15:06:48;3.63;;;1.67;;
17345;SDS011;8790;53.590;10.002;2024-01-15T15:09:20;2.87;;;1.70;;
17345;SDS011;8790;53.590;10.002;2024-01-15T15:11:52;2.60;;;1.60;;
17345;SDS011;8790;53.590;10.002;2024-01-15T15:14:23;2.87;;;1.83;;
17345;SDS011;8790;53.590;10.002;2024-01-15T15:16:55;2.67;;;1.90;;
17345;SDS011;8790;53.590;10.002;2024-01-15T15:19:26;2.17;;;1.73;;
17345;SDS011;8790;53.590;10.002;2024-01-15T15:21:59;2.90;;;1.93;;